Time;durP1;ratioP1;P1;durP2;ratioP2;P2;SDS_P1;SDS_P2;PMS_P1;PMS_P2;Temp;Humidity;BMP_temperature;BMP_pressure;BME280_temperature;BME280_humidity;BME280_pressure;Samples;Min_cycle;Max_cycle;Signal;HPM_P1;HPM_P2
2022/03/28 00:01:53;;;;;;;2.27;2.10;;;7.70;49.70;7.00;99200.00;;;;5036961;28;20253;-72
2022/03/28 00:04:20;;;;;;;1.83;1.57;;;7.60;50.80;7.10;99200.00;;;;5037002;28;20678;-72
2022/03/28 00:06:47;;;;;;;2.03;1.93;;;7.70;50.10;7.00;99183.00;;;;5019547;28;20736;-72
2022/03/28 00:09:14;;;;;;;3.73;1.73;;;7.60;50.10;7.00;99204.00;;;;5037073;28;20474;-72
2022/03/28 00:11:43;;;;;;;2.30;1.80;;;7.60;49.60;6.80;99168.00;;;;5036685;28;20536;-72
2022/03/28 00:14:10;;;;;;;4.00;2.47;;;7.50;50.10;7.00;99188.00;;;;5036714;28;20216;-72
2022/03/28 00:16:39;;;;;;;6.13;1.93;;;7.60;49.30;7.00;99183.00;;;;5036525;28;20224;-72
2022/03/28 00:19:08;;;;;;;1.33;1.33;;;7.60;49.20;6.80;99188.00;;;;5036566;28;20231;-72
2022/03/28 00:21:35;;;;;;;5.67;3.60;;;7.50;49.50;6.70;99176.00;;;;5036648;28;20250;-72
2022/03/28 00:24:02;;;;;;;1.70;1.63;;;7.40;49.90;6.70;99176.00;;;;5019260;28;20548;-72
2022/03/28 00:26:28;;;;;;;1.47;1.37;;;7.30;49.70;6.70;99179.00;;;;5036388;28;20234;-73
2022/03/28 00:28:55;;;;;;;1.70;1.60;;;7.40;49.80;6.70;99184.00;;;;5036413;28;20210;-74
2022/03/28 00:31:24;;;;;;;2.53;2.37;;;7.30;50.30;6.70;99168.00;;;;5036370;28;20206;-72
2022/03/28 00:33:50;;;;;;;1.50;1.40;;;7.40;50.10;6.70;99173.00;;;;5036316;28;20220;-72
2022/03/28 00:36:17;;;;;;;1.70;1.60;;;7.30;50.30;6.50;99161.00;;;;5019200;28;20270;-72
2022/03/28 00:38:46;;;;;;;2.67;2.33;;;7.30;49.90;6.50;99149.00;;;;5036345;28;20224;-73
2022/03/28 00:41:13;;;;;;;1.23;1.23;;;7.20;50.30;6.60;99160.00;;;;5018957;28;20215;-72
2022/03/28 00:43:52;;;;;;;5.37;1.97;;;7.20;50.20;6.60;99161.00;;;;5019151;28;20218;-72
2022/03/28 00:46:21;;;;;;;3.03;1.93;;;7.20;49.80;6.50;99156.00;;;;5036251;28;20635;-72
2022/03/28 00:48:48;;;;;;;1.97;1.87;;;7.20;50.10;6.40;99146.00;;;;5036165;28;20274;-72
2022/03/28 00:51:17;;;;;;;2.93;2.73;;;7.10;50.40;6.30;99137.00;;;;5036158;28;20639;-72
2022/03/28 00:53:44;;;;;;;1.13;1.13;;;7.00;50.50;6.30;99151.00;;;;5036034;28;20227;-72
2022/03/28 00:56:12;;;;;;;1.70;1.60;;;6.90;51.30;6.20;99156.00;;;;5018520;28;20217;-72
2022/03/28 00:58:39;;;;;;;4.13;3.00;;;6.90;50.40;6.30;99142.00;;;;5035326;28;20205;-72
2022/03/28 01:01:05;;;;;;;1.43;1.43;;;6.90;50.60;6.30;99149.00;;;;5036025;28;20700;-72
2022/03/28 01:03:32;;;;;;;1.33;1.33;;;6.90;51.00;6.30;99147.00;;;;5036129;28;20224;-72
2022/03/28 01:05:58;;;;;;;1.57;1.53;;;6.90;50.70;6.20;99148.00;;;;5018412;28;20283;-72
2022/03/28 01:08:28;;;;;;;1.17;1.17;;;6.90;51.50;6.20;99147.00;;;;5036100;28;20208;-72
2022/03/28 01:11:00;;;;;;;1.80;1.70;;;6.80;51.80;6.10;99129.00;;;;5036015;28;20227;-73
2022/03/28 01:13:28;;;;;;;1.60;1.50;;;6.80;52.10;6.20;99123.00;;;;5039464;28;20263;-73
2022/03/28 01:15:55;;;;;;;1.40;1.23;;;6.90;52.20;6.30;99133.00;;;;5042315;28;20241;-73
2022/03/28 01:18:22;;;;;;;2.40;2.20;;;6.90;52.30;6.20;99134.00;;;;5042541;28;20254;-73
2022/03/28 01:20:48;;;;;;;5.07;2.20;;;6.80;52.20;6.20;99128.00;;;;5038401;28;20242;-72
2022/03/28 01:23:15;;;;;;;1.47;1.40;;;6.80;52.50;6.10;99124.00;;;;5019058;28;20935;-72
2022/03/28 01:25:44;;;;;;;2.17;1.97;;;6.80;52.10;6.20;99115.00;;;;5035990;28;20251;-72
2022/03/28 01:28:11;;;;;;;2.40;2.20;;;6.80;52.00;6.10;99103.00;;;;5035599;28;20262;-72
2022/03/28 01:30:39;;;;;;;13.67;2.23;;;6.80;51.90;6.10;99125.00;;;;5035753;28;20204;-72
2022/03/28 01:33:06;;;;;;;1.00;1.00;;;6.80;52.10;6.10;99123.00;;;;5035710;28;20330;-72
2022/03/28 01:35:35;;;;;;;2.63;2.47;;;6.70;52.30;6.00;99119.00;;;;5035537;28;20224;-73
2022/03/28 01:38:05;;;;;;;1.67;1.53;;;6.70;51.80;6.00;99121.00;;;;5035383;28;20220;-72
2022/03/28 01:40:37;;;;;;;1.77;1.67;;;6.70;51.90;5.90;99114.00;;;;5018065;28;20266;-72
2022/03/28 01:43:04;;;;;;;1.60;1.50;;;6.70;52.50;6.00;99112.00;;;;5018150;28;20207;-72
2022/03/28 01:45:30;;;;;;;1.67;1.57;;;6.70;52.30;5.90;99112.00;;;;5035140;28;20286;-72
2022/03/28 01:47:57;;;;;;;1.80;1.70;;;6.60;52.60;5.90;99105.00;;;;5035285;28;20208;-72
2022/03/28 01:50:25;;;;;;;1.93;1.83;;;6.60;53.10;5.90;99099.00;;;;5035284;28;20205;-72
2022/03/28 01:52:52;;;;;;;1.03;1.03;;;6.60;52.30;5.90;99098.00;;;;5035296;28;20199;-72
2022/03/28 01:55:19;;;;;;;2.60;1.97;;;6.60;52.50;6.00;99096.00;;;;5035133;28;20201;-72
2022/03/28 01:57:47;;;;;;;2.17;2.07;;;6.60;52.40;5.90;99090.00;;;;5035427;28;20221;-72
2022/03/28 02:00:19;;;;;;;1.63;1.50;;;6.60;52.50;5.80;99091.00;;;;5017815;28;20213;-72
2022/03/28 02:02:47;;;;;;;6.03;2.53;;;6.50;52.30;5.90;99090.00;;;;5017730;28;20677;-72
2022/03/28 02:05:15;;;;;;;1.63;1.53;;;6.60;52.10;5.80;99091.00;;;;5017537;28;20291;-72
2022/03/28 02:07:46;;;;;;;2.47;2.30;;;6.50;52.30;5.90;99087.00;;;;5034826;28;20204;-72
2022/03/28 02:10:16;;;;;;;1.33;1.23;;;6.50;52.20;5.90;99086.00;;;;5034055;28;20286;-73
2022/03/28 02:12:44;;;;;;;1.17;1.10;;;6.50;52.80;5.90;99086.00;;;;5035158;28;20192;-72
2022/03/28 02:15:12;;;;;;;1.07;1.07;;;6.50;52.80;5.80;99088.00;;;;5017396;28;20224;-72
2022/03/28 02:17:39;;;;;;;1.50;1.40;;;6.40;52.30;5.70;99087.00;;;;5034752;28;20213;-72
2022/03/28 02:20:09;;;;;;;1.00;1.00;;;6.30;53.50;5.70;99082.00;;;;5034652;28;20243;-72
2022/03/28 02:22:36;;;;;;;1.00;1.00;;;6.40;53.20;5.70;99081.00;;;;5034718;28;20215;-72
2022/03/28 02:25:06;;;;;;;2.13;1.93;;;6.30;53.10;5.50;99081.00;;;;5034590;28;20637;-72
2022/03/28 02:27:33;;;;;;;1.97;1.87;;;6.30;53.10;5.40;99085.00;;;;5017648;28;20197;-72
2022/03/28 02:30:00;;;;;;;0.70;0.70;;;6.20;53.10;5.60;99077.00;;;;5017466;28;20224;-73
2022/03/28 02:32:30;;;;;;;2.23;2.03;;;6.20;52.90;5.70;99078.00;;;;5017373;28;20216;-72
2022/03/28 02:34:56;;;;;;;1.23;1.23;;;6.30;53.20;5.60;99076.00;;;;5034571;28;20661;-72
2022/03/28 02:37:23;;;;;;;2.23;2.10;;;6.30;53.10;5.50;99063.00;;;;5034530;28;20684;-72
2022/03/28 02:39:50;;;;;;;1.53;1.33;;;6.30;53.30;5.60;99071.00;;;;5017377;28;20298;-72
2022/03/28 02:42:22;;;;;;;2.50;2.23;;;6.30;53.30;5.60;99078.00;;;;5034382;28;20250;-72
2022/03/28 02:44:51;;;;;;;2.57;2.37;;;6.30;53.40;5.50;99065.00;;;;5034432;28;20663;-72
2022/03/28 02:47:19;;;;;;;1.10;1.10;;;6.30;53.20;5.40;99064.00;;;;5034157;28;20240;-72
2022/03/28 02:49:46;;;;;;;1.30;1.30;;;6.20;53.40;5.50;99062.00;;;;5017023;28;20232;-72
2022/03/28 02:52:15;;;;;;;2.13;1.93;;;6.20;53.60;5.60;99059.00;;;;5034193;28;20192;-72
2022/03/28 02:54:42;;;;;;;0.90;0.90;;;6.30;53.50;5.60;99052.00;;;;5034300;28;20636;-71
2022/03/28 02:57:09;;;;;;;1.27;1.17;;;6.30;53.40;5.60;99053.00;;;;5016919;28;20200;-72
2022/03/28 02:59:37;;;;;;;1.80;1.73;;;6.20;53.50;5.70;99056.00;;;;5016900;28;20251;-72
2022/03/28 03:02:05;;;;;;;1.87;1.77;;;6.30;53.40;5.70;99061.00;;;;5034171;28;20654;-72
2022/03/28 03:04:31;;;;;;;1.43;1.40;;;6.30;53.20;5.70;99056.00;;;;5033914;28;20599;-73
2022/03/28 03:06:59;;;;;;;1.70;1.30;;;6.40;53.40;5.80;99053.00;;;;5033978;28;20304;-72
2022/03/28 03:09:26;;;;;;;2.37;1.93;;;6.40;53.50;5.80;99053.00;;;;5033933;28;20208;-72
2022/03/28 03:11:53;;;;;;;1.10;1.00;;;6.50;53.60;5.80;99055.00;;;;5033992;28;20298;-72
2022/03/28 03:14:19;;;;;;;1.83;1.70;;;6.50;53.60;5.90;99039.00;;;;5033917;28;20228;-72
2022/03/28 03:16:48;;;;;;;1.07;1.07;;;6.50;53.60;5.80;99043.00;;;;5033816;28;20739;-72
2022/03/28 03:19:17;;;;;;;0.90;0.90;;;6.50;53.30;5.80;99032.00;;;;5034394;28;20661;-72
2022/03/28 03:21:45;;;;;;;1.50;1.50;;;6.50;53.20;5.90;99033.00;;;;5033369;28;20226;-71
2022/03/28 03:24:13;;;;;;;1.00;1.00;;;6.50;53.60;6.00;99026.00;;;;5033885;28;20194;-72
2022/03/28 03:26:39;;;;;;;4.00;2.20;;;6.60;53.80;5.90;99031.00;;;;5033715;28;20234;-71
2022/03/28 03:29:06;;;;;;;2.33;2.17;;;6.60;53.30;5.90;99035.00;;;;5033977;28;20216;-72
2022/03/28 03:31:32;;;;;;;1.93;1.83;;;6.60;53.60;5.90;99038.00;;;;5016663;28;20287;-72
2022/03/28 03:33:59;;;;;;;1.03;1.03;;;6.50;53.20;5.90;99036.00;;;;5033756;28;20197;-72
2022/03/28 03:36:26;;;;;;;1.17;1.17;;;6.50;52.50;5.80;99034.00;;;;5033841;28;20212;-72
2022/03/28 03:38:53;;;;;;;2.97;2.43;;;6.50;52.50;5.90;99033.00;;;;5033528;28;20678;-72
2022/03/28 03:41:20;;;;;;;1.80;1.20;;;6.50;52.70;5.80;99032.00;;;;5033744;28;20280;-72
2022/03/28 03:43:49;;;;;;;1.53;1.47;;;6.50;52.50;5.80;99031.00;;;;5015897;28;20265;-71
2022/03/28 03:46:16;;;;;;;1.03;1.03;;;6.40;52.60;5.80;99036.00;;;;5033339;28;20229;-72
2022/03/28 03:48:44;;;;;;;4.60;3.20;;;6.50;53.60;5.70;99038.00;;;;5033351;28;20663;-70
2022/03/28 03:51:11;;;;;;;2.30;2.03;;;6.40;52.80;5.60;99025.00;;;;5033608;28;20216;-72
2022/03/28 03:53:41;;;;;;;2.20;1.83;;;6.40;52.70;5.60;99024.00;;;;5016022;28;20224;-71
2022/03/28 03:56:07;;;;;;;1.37;1.30;;;6.30;52.90;5.60;99023.00;;;;5033833;28;20221;-72
2022/03/28 03:58:34;;;;;;;1.47;1.37;;;6.30;52.90;5.60;99031.00;;;;5033824;28;20202;-71
2022/03/28 04:01:01;;;;;;;1.20;1.20;;;6.20;53.00;5.50;99018.00;;;;5035828;28;20238;-72
2022/03/28 04:03:27;;;;;;;1.10;1.10;;;6.20;53.60;5.50;99026.00;;;;5033596;28;20284;-72
2022/03/28 04:05:54;;;;;;;2.10;1.97;;;6.20;53.70;5.50;99021.00;;;;5033146;28;20290;-71
2022/03/28 04:08:20;;;;;;;1.47;1.37;;;6.20;53.50;5.50;99024.00;;;;5033325;28;20209;-71
2022/03/28 04:10:47;;;;;;;3.40;3.10;;;6.20;53.90;5.50;99019.00;;;;5033509;28;20212;-72
2022/03/28 04:13:14;;;;;;;0.77;0.77;;;6.20;53.60;5.40;99022.00;;;;5033065;28;20201;-73
2022/03/28 04:15:41;;;;;;;1.73;1.63;;;6.10;54.00;5.40;99024.00;;;;5033265;28;20276;-71
2022/03/28 04:18:10;;;;;;;3.17;1.47;;;6.10;54.10;5.40;99028.00;;;;5033008;28;20227;-72
2022/03/28 04:20:37;;;;;;;1.53;1.43;;;6.10;54.10;5.50;99030.00;;;;5033074;28;20291;-73
2022/03/28 04:23:04;;;;;;;1.47;1.47;;;6.10;54.80;5.40;99017.00;;;;5033018;28;20228;-72
2022/03/28 04:25:31;;;;;;;1.57;1.50;;;6.10;54.20;5.30;99018.00;;;;5015925;28;20221;-72
2022/03/28 04:27:58;;;;;;;3.10;1.57;;;6.00;54.30;5.30;99024.00;;;;5032909;28;20337;-72
2022/03/28 04:30:26;;;;;;;17.53;3.07;;;6.00;54.80;5.30;99016.00;;;;5033242;28;20587;-72
2022/03/28 04:32:56;;;;;;;4.60;3.10;;;6.00;54.50;5.20;99024.00;;;;5017206;28;20664;-72
2022/03/28 04:35:23;;;;;;;1.97;1.80;;;6.00;54.80;5.30;99029.00;;;;5037324;28;20220;-72
2022/03/28 04:37:49;;;;;;;8.73;2.33;;;6.00;54.90;5.30;99026.00;;;;5037051;28;20254;-72
2022/03/28 04:40:18;;;;;;;1.37;1.27;;;6.00;54.80;5.20;99026.00;;;;5039331;28;20228;-71
2022/03/28 04:42:45;;;;;;;1.63;1.53;;;5.90;54.10;5.10;99025.00;;;;5046724;28;20259;-73
2022/03/28 04:45:15;;;;;;;1.17;1.17;;;5.80;54.30;5.20;99019.00;;;;5044108;28;20672;-73
2022/03/28 04:47:42;;;;;;;2.50;1.53;;;5.80;54.30;5.10;99026.00;;;;5040669;28;20207;-73
2022/03/28 04:50:10;;;;;;;1.90;1.80;;;5.80;55.20;5.10;99021.00;;;;5036553;28;20194;-73
2022/03/28 04:52:37;;;;;;;1.57;1.47;;;5.80;54.50;5.10;99024.00;;;;5036329;28;20284;-73
2022/03/28 04:55:05;;;;;;;1.87;1.77;;;5.70;54.50;5.00;99024.00;;;;5019141;28;20260;-74
2022/03/28 04:57:32;;;;;;;1.60;1.50;;;5.70;54.90;5.10;99019.00;;;;5036214;28;20220;-73
2022/03/28 04:59:59;;;;;;;2.40;2.20;;;5.70;54.90;5.00;99030.00;;;;5035965;28;20227;-74
2022/03/28 05:02:25;;;;;;;2.70;2.50;;;5.70;55.30;4.90;99023.00;;;;5035866;28;20240;-73
2022/03/28 05:04:52;;;;;;;1.43;1.40;;;5.60;55.50;5.00;99018.00;;;;5036090;28;20210;-72
2022/03/28 05:07:25;;;;;;;1.87;1.50;;;5.60;55.80;5.00;99020.00;;;;5035735;28;20370;-72
2022/03/28 05:09:53;;;;;;;9.17;2.50;;;5.60;55.60;4.70;99028.00;;;;5035985;28;20200;-72
2022/03/28 05:12:20;;;;;;;1.63;1.50;;;5.50;56.20;4.90;98991.00;;;;5018382;28;20220;-72
2022/03/28 05:14:47;;;;;;;1.40;1.30;;;5.60;55.80;4.80;99009.00;;;;5018248;28;20201;-71
2022/03/28 05:17:15;;;;;;;2.27;2.03;;;5.50;55.40;4.80;98999.00;;;;5035661;28;20194;-72
2022/03/28 05:19:42;;;;;;;1.30;1.30;;;5.40;55.40;4.70;99018.00;;;;5035547;28;20239;-72
2022/03/28 05:22:09;;;;;;;1.47;1.37;;;5.50;54.80;4.80;99017.00;;;;5035656;28;20267;-73
2022/03/28 05:24:38;;;;;;;2.23;2.13;;;5.50;55.30;4.60;99015.00;;;;5035477;28;20559;-73
2022/03/28 05:27:05;;;;;;;3.30;2.07;;;5.40;55.40;4.70;99008.00;;;;5035538;28;20655;-73
2022/03/28 05:29:31;;;;;;;1.20;1.20;;;5.40;55.80;4.80;99021.00;;;;5018245;28;20655;-72
2022/03/28 05:31:58;;;;;;;2.03;1.93;;;5.50;55.50;4.70;99025.00;;;;5035384;28;20193;-72
2022/03/28 05:34:25;;;;;;;2.20;2.07;;;5.50;55.50;4.80;99012.00;;;;5035840;28;20719;-72
2022/03/28 05:36:51;;;;;;;5.83;2.80;;;5.50;55.60;4.80;99023.00;;;;5035327;28;20220;-73
2022/03/28 05:39:18;;;;;;;4.90;2.20;;;5.50;55.10;4.80;99015.00;;;;5035312;28;20647;-73
2022/03/28 05:41:45;;;;;;;1.87;1.77;;;5.50;55.20;4.80;99016.00;;;;5035252;28;20220;-72
2022/03/28 05:44:12;;;;;;;2.47;2.27;;;5.50;55.20;4.90;99008.00;;;;5035188;28;20284;-72
2022/03/28 05:46:40;;;;;;;3.47;2.53;;;5.60;55.80;4.90;99019.00;;;;5035024;28;20224;-72
2022/03/28 05:49:07;;;;;;;1.87;1.77;;;5.50;55.90;4.90;98980.00;;;;5035246;28;20240;-74
2022/03/28 05:51:33;;;;;;;2.63;2.43;;;5.60;55.70;5.00;99020.00;;;;5035143;28;20409;-71
2022/03/28 05:54:00;;;;;;;8.00;2.80;;;5.60;55.40;5.00;99008.00;;;;5035036;28;20220;-71
2022/03/28 05:56:27;;;;;;;3.67;2.13;;;5.70;55.30;5.00;99018.00;;;;5035046;28;20284;-72
2022/03/28 05:58:54;;;;;;;1.43;1.43;;;5.70;55.00;4.90;99020.00;;;;5034934;28;20538;-71
2022/03/28 06:01:20;;;;;;;3.93;2.67;;;5.70;55.10;5.10;99010.00;;;;5034847;28;20204;-72
2022/03/28 06:03:47;;;;;;;3.50;2.77;;;5.70;55.60;5.20;99012.00;;;;5034849;28;20228;-72
2022/03/28 06:06:16;;;;;;;3.13;2.40;;;5.80;55.50;5.20;99016.00;;;;5034914;28;20282;-72
2022/03/28 06:08:43;;;;;;;11.30;1.93;;;5.80;55.60;5.20;99019.00;;;;5034867;28;20217;-72
2022/03/28 06:11:10;;;;;;;1.53;1.43;;;5.80;55.30;5.20;99023.00;;;;5034780;28;20201;-72
2022/03/28 06:13:36;;;;;;;6.10;2.57;;;5.80;55.00;5.10;99022.00;;;;5034812;28;20212;-72
2022/03/28 06:16:05;;;;;;;1.80;1.70;;;5.80;54.60;4.90;99016.00;;;;5034685;28;20292;-71
2022/03/28 06:18:31;;;;;;;1.10;1.10;;;5.70;54.70;4.90;99020.00;;;;5017271;28;20530;-71
2022/03/28 06:20:58;;;;;;;2.73;2.53;;;5.60;55.40;5.20;99020.00;;;;5034582;28;20220;-71
2022/03/28 06:23:24;;;;;;;1.93;1.83;;;5.80;57.10;5.30;99023.00;;;;5034669;28;20204;-71
2022/03/28 06:25:53;;;;;;;1.90;1.80;;;5.90;55.80;5.20;99029.00;;;;5034382;28;20666;-71
2022/03/28 06:28:20;;;;;;;2.17;1.97;;;5.90;55.50;5.30;99029.00;;;;5034551;28;20208;-73
2022/03/28 06:30:46;;;;;;;2.30;2.13;;;6.00;55.20;5.30;99024.00;;;;5017375;28;20208;-72
2022/03/28 06:33:14;;;;;;;2.50;2.33;;;6.00;54.80;5.30;99028.00;;;;5017482;28;20201;-73
2022/03/28 06:35:41;;;;;;;3.07;2.77;;;6.00;55.30;5.40;99031.00;;;;5034582;28;20198;-71
2022/03/28 06:38:08;;;;;;;1.73;1.63;;;6.10;55.50;5.60;99033.00;;;;5034321;28;20307;-71
2022/03/28 06:40:35;;;;;;;1.73;1.63;;;6.20;55.30;5.70;99030.00;;;;5034547;28;20674;-71
2022/03/28 06:43:04;;;;;;;2.53;2.43;;;6.30;54.80;5.60;99017.00;;;;5034703;28;20225;-71
2022/03/28 06:45:31;;;;;;;6.17;2.80;;;6.30;54.60;5.70;99028.00;;;;5037252;28;20266;-71
2022/03/28 06:47:58;;;;;;;3.13;2.83;;;6.40;55.10;5.80;99020.00;;;;5034807;28;20199;-72
2022/03/28 06:50:27;;;;;;;2.20;2.10;;;6.50;55.10;6.00;99029.00;;;;5017082;28;20644;-72
2022/03/28 06:52:54;;;;;;;1.57;1.50;;;6.60;54.90;6.10;99031.00;;;;5034334;28;20198;-72
2022/03/28 06:55:24;;;;;;;1.47;1.40;;;6.70;54.40;6.20;99022.00;;;;5033572;28;20222;-72
2022/03/28 06:57:53;;;;;;;1.07;1.07;;;6.80;54.40;6.20;99025.00;;;;5016781;28;20218;-71
2022/03/28 07:00:22;;;;;;;3.97;2.93;;;6.90;54.30;6.40;99018.00;;;;5016596;28;20226;-72
2022/03/28 07:02:49;;;;;;;2.03;1.50;;;7.00;53.60;6.50;99012.00;;;;5034147;28;20279;-72
2022/03/28 07:05:16;;;;;;;1.30;1.30;;;7.10;53.00;6.70;99026.00;;;;5016574;28;20299;-72
2022/03/28 07:07:44;;;;;;;1.30;1.30;;;7.30;52.80;6.80;99029.00;;;;5033942;28;20249;-73
2022/03/28 07:10:16;;;;;;;1.33;1.30;;;7.40;52.30;6.90;99017.00;;;;5033929;28;20192;-73
2022/03/28 07:12:43;;;;;;;2.97;2.10;;;7.50;51.90;6.90;99011.00;;;;5016565;28;20201;-71
2022/03/28 07:15:12;;;;;;;1.70;1.63;;;7.60;51.70;7.00;99016.00;;;;5033889;28;20299;-71
2022/03/28 07:17:51;;;;;;;2.63;2.40;;;7.70;51.50;7.10;98991.00;;;;5033854;28;20281;-71
2022/03/28 07:20:18;;;;;;;3.63;2.53;;;7.80;51.10;7.10;99016.00;;;;5033937;28;20497;-71
2022/03/28 07:22:45;;;;;;;1.83;1.73;;;7.90;50.90;7.40;99015.00;;;;5033897;28;20219;-71
2022/03/28 07:25:12;;;;;;;1.37;1.37;;;8.10;50.80;7.60;99018.00;;;;5016509;28;20291;-71
2022/03/28 07:27:41;;;;;;;3.37;2.70;;;8.20;50.50;7.70;99022.00;;;;5033465;28;20629;-73
2022/03/28 07:30:10;;;;;;;2.23;2.10;;;8.30;50.20;7.80;99019.00;;;;5033750;28;20200;-72
2022/03/28 07:32:39;;;;;;;4.90;2.83;;;8.50;50.10;8.00;99014.00;;;;5016238;28;20637;-72
2022/03/28 07:35:07;;;;;;;1.77;1.63;;;8.60;49.90;8.20;99007.00;;;;5033395;28;20580;-73
2022/03/28 07:37:35;;;;;;;2.23;2.10;;;8.70;49.50;8.20;99011.00;;;;5033531;28;20205;-72
2022/03/28 07:40:07;;;;;;;1.83;1.73;;;8.90;49.20;8.40;99005.00;;;;5033471;28;20303;-72
2022/03/28 07:42:34;;;;;;;1.67;1.57;;;9.00;49.20;8.50;98994.00;;;;5033244;28;20223;-71
2022/03/28 07:45:02;;;;;;;2.40;2.23;;;9.10;49.00;8.60;99008.00;;;;5016303;28;20221;-72
2022/03/28 07:47:29;;;;;;;1.67;1.57;;;9.30;48.70;8.80;99003.00;;;;5033505;28;20600;-73
2022/03/28 07:49:57;;;;;;;2.40;2.20;;;9.40;48.40;8.90;99009.00;;;;5033382;28;20299;-72
2022/03/28 07:52:24;;;;;;;6.30;3.30;;;9.50;47.70;9.10;99002.00;;;;5033467;28;20307;-71
2022/03/28 07:54:53;;;;;;;3.53;2.00;;;9.70;47.60;9.20;98991.00;;;;5016086;28;20635;-73
2022/03/28 07:57:23;;;;;;;2.20;1.73;;;9.80;47.10;9.30;98960.00;;;;5033328;28;20192;-72
2022/03/28 07:59:49;;;;;;;1.70;1.60;;;9.90;46.60;9.50;99004.00;;;;5016087;28;20544;-72
2022/03/28 08:02:16;;;;;;;1.73;1.50;;;10.10;46.10;9.70;98998.00;;;;5033250;28;20224;-72
2022/03/28 08:04:44;;;;;;;1.90;1.80;;;10.30;45.80;9.80;98991.00;;;;5033264;28;20644;-72
2022/03/28 08:07:12;;;;;;;0.97;0.97;;;10.40;45.30;9.90;98992.00;;;;5033637;28;20308;-72
2022/03/28 08:09:41;;;;;;;5.23;3.60;;;10.50;45.00;10.20;98985.00;;;;5036666;28;20331;-72
2022/03/28 08:12:10;;;;;;;1.93;1.83;;;10.70;44.80;10.30;98987.00;;;;5036743;28;20192;-72
2022/03/28 08:14:37;;;;;;;5.30;3.17;;;10.80;43.30;10.40;98985.00;;;;5036545;28;20200;-72
2022/03/28 08:17:05;;;;;;;2.87;2.33;;;10.90;42.80;10.60;98978.00;;;;5036563;28;20521;-72
2022/03/28 08:19:32;;;;;;;2.70;2.60;;;11.10;41.80;10.60;98948.00;;;;5036469;28;20213;-72
2022/03/28 08:21:59;;;;;;;4.70;1.97;;;11.20;41.50;10.80;98983.00;;;;5036461;28;20231;-71
2022/03/28 08:24:25;;;;;;;1.83;1.73;;;11.30;41.00;10.90;98981.00;;;;5036378;28;20228;-72
2022/03/28 08:26:52;;;;;;;4.83;2.23;;;11.50;40.80;11.00;98978.00;;;;5036433;28;20234;-72
2022/03/28 08:29:19;;;;;;;1.70;1.60;;;11.60;39.80;11.20;98974.00;;;;5036267;28;20203;-71
2022/03/28 08:31:46;;;;;;;1.50;1.40;;;11.70;39.50;11.30;98971.00;;;;5036384;28;20729;-72
2022/03/28 08:34:13;;;;;;;4.80;2.17;;;11.90;40.00;11.50;98980.00;;;;5036330;28;20223;-72
2022/03/28 08:36:40;;;;;;;3.30;1.70;;;12.00;38.80;11.60;98970.00;;;;5036305;28;20295;-72
2022/03/28 08:39:08;;;;;;;3.03;2.47;;;12.10;38.50;11.70;98969.00;;;;5018818;28;20211;-71
2022/03/28 08:41:35;;;;;;;3.07;1.47;;;12.30;38.00;11.80;98968.00;;;;5036307;28;20274;-74
2022/03/28 08:44:04;;;;;;;0.80;0.80;;;12.40;37.80;12.00;98967.00;;;;5036112;28;20208;-72
2022/03/28 08:46:31;;;;;;;12.10;1.80;;;12.50;37.80;12.00;98968.00;;;;5036041;28;20680;-73
2022/03/28 08:49:00;;;;;;;4.67;2.60;;;12.60;37.80;12.10;98972.00;;;;5036097;28;20197;-72
2022/03/28 08:51:31;;;;;;;1.73;1.63;;;12.70;37.80;12.30;98965.00;;;;5036108;28;20196;-72
2022/03/28 08:53:58;;;;;;;2.03;1.93;;;12.80;37.40;12.40;98967.00;;;;5036054;28;20208;-72
2022/03/28 08:56:27;;;;;;;2.93;2.63;;;12.90;37.00;12.50;98970.00;;;;5035963;28;20208;-72
2022/03/28 08:58:54;;;;;;;2.57;2.37;;;13.00;35.70;12.60;98966.00;;;;5018392;28;20228;-73
2022/03/28 09:01:21;;;;;;;4.50;2.57;;;13.10;35.70;12.70;98963.00;;;;5018506;28;20206;-73
2022/03/28 09:03:49;;;;;;;1.00;1.00;;;13.20;35.50;12.80;98946.00;;;;5035738;28;20297;-73
2022/03/28 09:06:37;;;;;;;2.33;2.20;;;13.40;35.30;13.00;98962.00;;;;5035770;28;20644;-73
2022/03/28 09:09:16;;;;;;;3.07;2.87;;;13.50;34.30;13.10;98952.00;;;;5018594;28;20548;-71
2022/03/28 09:11:46;;;;;;;2.97;2.77;;;13.60;34.50;13.20;98950.00;;;;5035885;28;20208;-73
2022/03/28 09:14:24;;;;;;;2.67;2.47;;;13.70;33.40;13.20;98949.00;;;;5018437;28;20319;-75
2022/03/28 09:17:05;;;;;;;2.77;2.00;;;13.80;32.70;13.40;98942.00;;;;5035778;28;20219;-75
2022/03/28 09:19:48;;;;;;;6.23;1.77;;;13.90;32.70;13.60;98930.00;;;;5035245;28;20236;-77
2022/03/28 09:22:23;;;;;;;3.43;3.13;;;14.00;32.60;13.70;98940.00;;;;5035677;28;20230;-75
2022/03/28 09:24:51;;;;;;;1.87;1.77;;;14.20;32.80;13.70;98934.00;;;;5035562;28;20228;-76
2022/03/28 09:27:21;;;;;;;1.90;1.67;;;14.30;32.40;13.80;98928.00;;;;5035622;28;20355;-76
2022/03/28 09:30:02;;;;;;;3.30;2.87;;;14.40;32.10;13.90;98928.00;;;;5036009;28;20224;-77
2022/03/28 09:32:32;;;;;;;3.87;2.17;;;14.50;31.90;14.10;98923.00;;;;5018406;28;20220;-77
2022/03/28 09:35:12;;;;;;;1.87;1.77;;;14.50;31.20;14.20;98923.00;;;;5018268;28;20200;-75
2022/03/28 09:37:56;;;;;;;5.90;2.50;;;14.70;31.10;14.30;98914.00;;;;5035883;28;20197;-77
2022/03/28 09:40:33;;;;;;;3.23;2.93;;;14.80;31.50;14.40;98911.00;;;;5035884;28;20544;-77
2022/03/28 09:43:05;;;;;;;1.67;1.57;;;14.90;31.10;14.50;98905.00;;;;5036026;28;20535;-78
2022/03/28 09:45:35;;;;;;;5.83;2.90;;;15.00;30.90;14.70;98908.00;;;;5037637;28;20282;-77
2022/03/28 09:48:08;;;;;;;3.20;2.90;;;15.20;31.20;14.80;98897.00;;;;5040389;28;20215;-78
2022/03/28 09:50:40;;;;;;;7.10;3.13;;;15.30;30.80;15.00;98901.00;;;;5022578;28;20232;-78
2022/03/28 09:53:16;;;;;;;3.43;3.13;;;15.40;29.70;15.10;98893.00;;;;5037872;28;20216;-78
2022/03/28 09:55:49;;;;;;;1.73;1.63;;;15.60;30.00;15.20;98881.00;;;;5035160;28;20220;-77
2022/03/28 09:58:46;;;;;;;4.43;3.47;;;15.70;30.00;15.40;98884.00;;;;5035213;28;20212;-77
2022/03/28 10:01:17;;;;;;;1.97;1.87;;;15.90;30.20;15.60;98886.00;;;;5035748;28;20317;-78
2022/03/28 10:03:46;;;;;;;2.80;2.53;;;16.00;30.90;15.70;98885.00;;;;5018343;28;20213;-76
2022/03/28 10:06:13;;;;;;;4.83;3.30;;;16.20;30.60;16.00;98872.00;;;;5034788;28;20233;-77
2022/03/28 10:08:41;;;;;;;1.57;1.47;;;16.40;29.20;16.00;98886.00;;;;5036294;28;20299;-77
2022/03/28 10:11:11;;;;;;;2.67;2.40;;;16.50;29.00;16.10;98871.00;;;;5037019;28;20346;-77
2022/03/28 10:13:39;;;;;;;1.90;1.80;;;16.60;28.90;16.40;98868.00;;;;5042486;28;20216;-76
2022/03/28 10:16:07;;;;;;;26.30;4.17;;;16.80;29.10;16.70;98869.00;;;;5042529;28;20196;-76
2022/03/28 10:18:36;;;;;;;2.33;2.23;;;17.10;28.30;16.70;98869.00;;;;5041239;28;20207;-77
2022/03/28 10:21:09;;;;;;;3.57;2.80;;;17.10;27.90;16.80;98860.00;;;;5035416;28;20217;-75
2022/03/28 10:23:46;;;;;;;4.50;3.93;;;;;17.00;98859.00;;;;5035154;28;20239;-78
2022/03/28 10:26:14;;;;;;;2.40;2.23;;;;;17.20;98861.00;;;;5034662;28;20247;-76
2022/03/28 10:28:41;;;;;;;3.43;2.53;;;;;17.50;98855.00;;;;5034460;28;20307;-76
2022/03/28 10:31:18;;;;;;;3.10;2.80;;;17.80;26.00;17.60;98841.00;;;;5033547;28;20342;-76
2022/03/28 10:33:52;;;;;;;2.83;2.30;;;18.00;25.70;17.70;98850.00;;;;5034436;28;20224;-76
2022/03/28 10:36:28;;;;;;;3.00;2.53;;;18.10;26.30;17.60;98841.00;;;;5034394;28;20196;-76
2022/03/28 10:39:31;;;;;;;5.40;3.00;;;18.10;24.30;17.70;98849.00;;;;5034309;28;20212;-76
2022/03/28 10:42:17;;;;;;;4.27;2.67;;;18.20;24.80;18.00;98837.00;;;;5034383;28;20193;-76
2022/03/28 10:44:46;;;;;;;2.13;2.03;;;18.40;25.30;18.20;98828.00;;;;5034214;28;20279;-74
2022/03/28 10:47:14;;;;;;;4.03;3.30;;;18.60;25.80;18.40;98826.00;;;;5034166;28;20220;-74
2022/03/28 10:49:43;;;;;;;2.73;2.13;;;18.80;25.30;18.60;98822.00;;;;5034098;28;20203;-73
2022/03/28 10:52:16;;;;;;;3.20;2.50;;;19.00;24.90;18.80;98819.00;;;;5034137;28;20201;-73
2022/03/28 10:54:43;;;;;;;3.03;2.83;;;19.20;24.30;18.80;98816.00;;;;5034077;28;20213;-74
2022/03/28 10:57:27;;;;;;;5.13;3.60;;;19.20;24.40;18.80;98805.00;;;;5034182;28;20197;-75
2022/03/28 11:00:08;;;;;;;3.00;2.70;;;19.30;22.90;19.00;98803.00;;;;5033261;28;20671;-73
2022/03/28 11:02:38;;;;;;;1.97;1.83;;;19.40;22.50;19.00;98803.00;;;;5016587;28;20213;-71
2022/03/28 11:05:13;;;;;;;19.63;2.93;;;19.50;23.60;19.40;98800.00;;;;5016432;28;20240;-72
2022/03/28 11:07:39;;;;;;;8.23;2.63;;;19.70;23.60;19.40;98799.00;;;;5034107;28;20235;-73
2022/03/28 11:10:12;;;;;;;2.37;2.20;;;19.80;22.30;19.40;98799.00;;;;5033805;28;20298;-74
2022/03/28 11:12:42;;;;;;;6.60;3.77;;;19.80;23.00;19.70;98795.00;;;;5034039;28;20212;-76